createdAt,value
2019-02-26T00:02:26.077Z,4.70
2019-02-26T00:05:00.826Z,4.60
2019-02-26T00:07:32.175Z,4.60
2019-02-26T00:10:04.608Z,4.50
2019-02-26T00:12:35.646Z,4.40
2019-02-26T00:15:07.432Z,4.50
2019-02-26T00:17:40.565Z,4.60
2019-02-26T00:20:11.110Z,4.50
2019-02-26T00:22:42.335Z,4.50
2019-02-26T00:25:15.293Z,4.40
2019-02-26T00:27:47.092Z,4.40
2019-02-26T00:30:18.667Z,4.30
2019-02-26T00:32:49.196Z,4.20
2019-02-26T00:35:21.206Z,4.20
2019-02-26T00:37:53.486Z,4.30
2019-02-26T00:40:24.391Z,4.30
2019-02-26T00:42:57.088Z,4.40
2019-02-26T00:45:29.424Z,4.40
2019-02-26T00:47:59.362Z,4.30
2019-02-26T00:50:30.335Z,4.20
2019-02-26T00:53:03.892Z,4.30
2019-02-26T00:55:35.670Z,4.30
2019-02-26T00:58:08.548Z,4.30
2019-02-26T01:00:38.466Z,4.20
2019-02-26T01:03:10.957Z,4.00
2019-02-26T01:05:43.127Z,3.90
2019-02-26T01:08:15.785Z,3.90
2019-02-26T01:10:48.011Z,3.90
2019-02-26T01:13:20.115Z,3.90
2019-02-26T01:15:50.497Z,3.90
2019-02-26T01:18:22.441Z,3.90
2019-02-26T01:20:54.729Z,4.00
2019-02-26T01:23:26.859Z,4.00
2019-02-26T01:25:57.161Z,3.90
2019-02-26T01:28:29.221Z,3.80
2019-02-26T01:31:00.260Z,3.80
2019-02-26T01:33:32.184Z,3.80
2019-02-26T01:36:05.449Z,3.80
2019-02-26T01:38:39.437Z,3.70
2019-02-26T01:41:08.675Z,3.60
2019-02-26T01:43:40.049Z,3.50
2019-02-26T01:46:11.690Z,3.40
2019-02-26T01:48:42.450Z,3.30
2019-02-26T01:51:12.647Z,3.30
2019-02-26T01:53:46.402Z,3.30
2019-02-26T01:56:15.176Z,3.40
2019-02-26T01:58:45.721Z,3.30
2019-02-26T02:01:16.744Z,3.40
2019-02-26T02:03:48.803Z,3.40
2019-02-26T02:06:20.361Z,3.30
2019-02-26T02:08:52.852Z,3.30
2019-02-26T02:11:28.200Z,3.30
2019-02-26T02:13:56.023Z,3.30
2019-02-26T02:16:28.935Z,3.30
2019-02-26T02:18:59.960Z,3.40
2019-02-26T02:21:31.515Z,3.40
2019-02-26T02:24:03.119Z,3.20
2019-02-26T02:26:35.026Z,3.30
2019-02-26T02:29:05.440Z,3.20
2019-02-26T02:31:37.833Z,3.20
2019-02-26T02:34:07.966Z,3.30
2019-02-26T02:36:42.681Z,3.30
2019-02-26T02:39:15.651Z,3.30
2019-02-26T02:41:48.767Z,3.10
2019-02-26T02:44:20.463Z,3.10
2019-02-26T02:46:51.432Z,3.00
2019-02-26T02:49:21.845Z,3.00
2019-02-26T02:51:52.295Z,2.90
2019-02-26T02:54:23.616Z,3.00
2019-02-26T02:56:56.855Z,3.00
2019-02-26T02:59:28.255Z,2.90
2019-02-26T03:01:59.121Z,3.00
2019-02-26T03:04:31.680Z,3.00
2019-02-26T03:07:03.225Z,2.80
2019-02-26T03:09:37.172Z,2.80
2019-02-26T03:12:06.218Z,2.90
2019-02-26T03:14:39.157Z,2.90
2019-02-26T03:17:10.960Z,2.90
2019-02-26T03:19:43.574Z,2.90
2019-02-26T03:22:15.247Z,2.80
2019-02-26T03:24:45.773Z,2.80
2019-02-26T03:27:16.425Z,2.70
2019-02-26T03:29:47.344Z,2.70
2019-02-26T03:32:18.805Z,2.80
2019-02-26T03:34:49.388Z,2.80
2019-02-26T03:37:19.771Z,2.70
2019-02-26T03:39:54.278Z,2.60
2019-02-26T03:42:22.237Z,2.60
2019-02-26T03:44:52.554Z,2.60
2019-02-26T03:47:23.548Z,2.60
2019-02-26T03:49:53.865Z,2.50
2019-02-26T03:52:24.756Z,2.50
2019-02-26T03:54:55.331Z,2.50
2019-02-26T03:57:25.906Z,2.60
2019-02-26T03:59:56.263Z,2.50
2019-02-26T04:02:27.347Z,2.50
2019-02-26T04:05:02.234Z,2.40
2019-02-26T04:07:32.840Z,2.40
2019-02-26T04:10:03.092Z,2.40
2019-02-26T04:12:36.321Z,2.50
2019-02-26T04:15:06.572Z,2.60
2019-02-26T04:17:39.484Z,2.40
2019-02-26T04:20:10.034Z,2.50
2019-02-26T04:22:42.904Z,2.40
2019-02-26T04:25:42.710Z,2.40
2019-02-26T04:28:27.383Z,2.40
2019-02-26T04:31:52.190Z,2.30
2019-02-26T04:35:06.120Z,2.40
2019-02-26T04:38:08.038Z,2.30
2019-02-26T04:41:11.990Z,2.20
2019-02-26T04:44:15.643Z,2.20
2019-02-26T04:47:17.782Z,2.20
2019-02-26T04:49:48.170Z,2.10
2019-02-26T04:52:18.739Z,2.10
2019-02-26T04:54:49.194Z,2.20
2019-02-26T04:57:19.648Z,2.20
2019-02-26T04:59:49.820Z,2.10
2019-02-26T05:02:20.264Z,2.10
2019-02-26T05:04:50.787Z,2.10
2019-02-26T05:07:21.370Z,2.00
2019-02-26T05:09:53.849Z,2.00
2019-02-26T05:12:25.453Z,2.00
2019-02-26T05:14:55.822Z,1.90
2019-02-26T05:17:30.112Z,1.90
2019-02-26T05:19:58.580Z,1.90
2019-02-26T05:22:33.362Z,1.90
2019-02-26T05:25:04.740Z,1.90
2019-02-26T05:27:39.155Z,2.00
2019-02-26T05:30:09.904Z,1.90
2019-02-26T05:32:40.997Z,1.90
2019-02-26T05:35:12.156Z,1.80
2019-02-26T05:37:43.411Z,1.80
2019-02-26T05:40:18.309Z,1.90
2019-02-26T05:42:45.583Z,1.80
2019-02-26T05:45:16.156Z,1.90
2019-02-26T05:47:50.191Z,1.90
2019-02-26T05:50:19.454Z,1.80
2019-02-26T05:52:53.530Z,1.70
2019-02-26T05:55:23.709Z,1.70
2019-02-26T05:57:54.539Z,1.60
2019-02-26T06:00:28.965Z,1.80
2019-02-26T06:03:07.190Z,1.70
2019-02-26T06:05:41.205Z,1.70
2019-02-26T06:08:09.397Z,1.60
2019-02-26T06:10:39.721Z,1.60
2019-02-26T06:13:15.621Z,1.60
2019-02-26T06:15:51.267Z,1.60
2019-02-26T06:18:21.040Z,1.70
2019-02-26T06:21:01.284Z,1.60
2019-02-26T06:23:33.936Z,1.60
2019-02-26T06:26:09.304Z,1.60
2019-02-26T06:28:40.093Z,1.60
2019-02-26T06:31:11.413Z,1.70
2019-02-26T06:33:43.662Z,1.70
2019-02-26T06:36:13.854Z,1.50
2019-02-26T06:38:44.204Z,1.60
2019-02-26T06:41:14.710Z,1.70
2019-02-26T06:43:48.513Z,1.70
2019-02-26T06:46:17.795Z,1.60
2019-02-26T06:48:48.173Z,1.60
2019-02-26T06:51:19.153Z,1.60
2019-02-26T06:53:52.241Z,1.60
2019-02-26T06:56:23.112Z,1.60
2019-02-26T06:58:54.266Z,1.60
2019-02-26T07:01:24.474Z,1.70
2019-02-26T07:03:56.818Z,1.70
2019-02-26T07:06:30.185Z,1.80
2019-02-26T07:09:00.194Z,1.80
2019-02-26T07:11:31.316Z,1.70
2019-02-26T07:14:03.617Z,1.70
2019-02-26T07:16:34.132Z,1.70
2019-02-26T07:19:06.412Z,1.80
2019-02-26T07:21:40.151Z,1.80
2019-02-26T07:24:09.320Z,1.90
2019-02-26T07:26:41.746Z,1.90
2019-02-26T07:29:17.355Z,2.00
2019-02-26T07:31:47.205Z,2.20
2019-02-26T07:34:18.272Z,2.50
2019-02-26T07:36:59.302Z,3.00
2019-02-26T07:39:29.785Z,3.60
2019-02-26T07:42:09.638Z,4.40
2019-02-26T07:44:41.898Z,5.10
2019-02-26T07:47:12.297Z,5.80
2019-02-26T07:49:42.729Z,6.40
2019-02-26T07:52:16.177Z,6.80
2019-02-26T07:54:47.604Z,7.30
2019-02-26T07:57:20.645Z,7.80
2019-02-26T07:59:51.004Z,8.20
2019-02-26T08:02:21.719Z,8.90
2019-02-26T08:04:52.900Z,9.30
2019-02-26T08:07:24.390Z,9.80
2019-02-26T08:09:55.946Z,10.20
2019-02-26T08:12:30.954Z,10.90
2019-02-26T08:15:02.968Z,11.60
2019-02-26T08:17:33.463Z,12.20
2019-02-26T08:20:07.241Z,12.60
2019-02-26T08:22:39.530Z,13.00
2019-02-26T08:25:10.082Z,13.50
2019-02-26T08:27:40.349Z,14.00
2019-02-26T08:30:21.001Z,14.80
2019-02-26T08:32:56.360Z,15.00
2019-02-26T08:35:26.942Z,15.80
2019-02-26T08:37:57.049Z,15.80
2019-02-26T08:40:27.698Z,16.00
2019-02-26T08:43:00.126Z,16.10
2019-02-26T08:45:31.146Z,16.60
2019-02-26T08:48:01.661Z,17.30
2019-02-26T08:50:36.158Z,17.60
2019-02-26T08:53:07.568Z,17.80
2019-02-26T08:55:41.353Z,18.10
2019-02-26T08:58:12.532Z,18.30
2019-02-26T09:00:47.545Z,18.50
2019-02-26T09:03:17.931Z,18.70
2019-02-26T09:06:03.577Z,18.70
2019-02-26T09:08:30.145Z,18.70
2019-02-26T09:11:00.855Z,18.50
2019-02-26T09:13:36.298Z,18.80
2019-02-26T09:16:08.700Z,19.00
2019-02-26T09:18:40.571Z,19.00
2019-02-26T09:21:13.470Z,19.40
2019-02-26T09:23:47.387Z,19.30
2019-02-26T09:26:15.517Z,19.50
2019-02-26T09:28:50.093Z,19.90
2019-02-26T09:31:20.801Z,20.30
2019-02-26T09:33:50.870Z,20.60
2019-02-26T09:36:23.725Z,20.90
2019-02-26T09:38:53.445Z,21.30
2019-02-26T09:41:23.984Z,21.40
2019-02-26T09:43:54.480Z,21.50
2019-02-26T09:46:25.790Z,21.60
2019-02-26T09:48:57.433Z,21.70
2019-02-26T09:51:30.598Z,20.80
2019-02-26T09:54:01.244Z,21.00
2019-02-26T09:56:31.649Z,21.10
2019-02-26T09:59:02.436Z,21.00
2019-02-26T10:01:35.349Z,21.30
2019-02-26T10:04:05.687Z,21.80
2019-02-26T10:06:37.910Z,22.20
2019-02-26T10:09:15.749Z,22.40
2019-02-26T10:11:47.375Z,22.60
2019-02-26T10:14:18.370Z,22.60
2019-02-26T10:16:50.104Z,23.00
2019-02-26T10:19:22.245Z,23.00
2019-02-26T10:21:53.147Z,22.00
2019-02-26T10:24:27.168Z,20.80
2019-02-26T10:26:58.669Z,22.30
2019-02-26T10:29:27.918Z,23.30
2019-02-26T10:31:58.181Z,24.10
2019-02-26T10:34:31.157Z,24.00
2019-02-26T10:37:07.095Z,23.20
2019-02-26T10:39:42.218Z,22.20
2019-02-26T10:42:18.143Z,22.30
2019-02-26T10:44:50.925Z,22.40
2019-02-26T10:47:22.827Z,21.90
2019-02-26T10:49:54.469Z,23.00
2019-02-26T10:52:28.678Z,24.10
2019-02-26T10:55:02.063Z,22.80
2019-02-26T10:57:36.142Z,22.90
2019-02-26T11:00:12.294Z,23.00
2019-02-26T11:02:46.078Z,24.00
2019-02-26T11:05:21.542Z,24.30
2019-02-26T11:07:49.610Z,22.80
2019-02-26T11:10:23.242Z,21.70
2019-02-26T11:12:56.246Z,23.00
2019-02-26T11:15:26.821Z,24.20
2019-02-26T11:17:58.656Z,24.60
2019-02-26T11:20:34.167Z,24.00
2019-02-26T11:23:06.200Z,24.70
2019-02-26T11:25:38.400Z,23.00
2019-02-26T11:28:13.987Z,23.30
2019-02-26T11:30:46.461Z,23.80
2019-02-26T11:33:19.867Z,24.40
2019-02-26T11:35:51.699Z,24.30
2019-02-26T11:38:22.552Z,24.20
2019-02-26T11:40:53.048Z,24.10
2019-02-26T11:43:27.117Z,23.20
2019-02-26T11:45:59.190Z,23.40
2019-02-26T11:48:30.918Z,24.10
2019-02-26T11:51:01.479Z,24.90
2019-02-26T11:53:34.454Z,25.80
2019-02-26T11:56:05.202Z,26.20
2019-02-26T11:58:41.655Z,26.00
2019-02-26T12:01:15.882Z,26.40
2019-02-26T12:03:49.074Z,26.30
2019-02-26T12:06:21.648Z,26.20
2019-02-26T12:08:52.027Z,26.30
2019-02-26T12:11:23.338Z,26.60
2019-02-26T12:13:58.475Z,25.90
2019-02-26T12:16:33.389Z,25.50
2019-02-26T12:19:08.307Z,26.00
2019-02-26T12:21:40.645Z,26.00
2019-02-26T12:24:14.019Z,26.20
2019-02-26T12:26:47.529Z,26.60
2019-02-26T12:29:18.669Z,26.60
2019-02-26T12:31:50.240Z,26.80
2019-02-26T12:34:23.957Z,26.10
2019-02-26T12:37:02.814Z,25.80
2019-02-26T12:39:34.305Z,26.10
2019-02-26T12:42:07.124Z,26.50
2019-02-26T12:44:42.302Z,26.70
2019-02-26T12:47:15.456Z,26.40
2019-02-26T12:49:45.061Z,26.30
2019-02-26T12:52:17.893Z,26.20
2019-02-26T12:54:47.403Z,26.40
2019-02-26T12:57:19.836Z,26.60
2019-02-26T12:59:50.021Z,26.90
2019-02-26T13:02:21.832Z,26.70
2019-02-26T13:04:55.551Z,26.80
2019-02-26T13:07:27.112Z,26.90
2019-02-26T13:10:01.018Z,25.90
2019-02-26T13:12:32.374Z,24.00
2019-02-26T13:15:05.766Z,24.40
2019-02-26T13:17:34.704Z,24.90
2019-02-26T13:20:11.038Z,25.30
2019-02-26T13:22:45.897Z,25.70
2019-02-26T13:25:17.764Z,25.40
2019-02-26T13:27:51.034Z,25.60
2019-02-26T13:30:22.809Z,25.80
2019-02-26T13:32:59.960Z,25.80
2019-02-26T13:35:28.841Z,26.00
2019-02-26T13:37:59.540Z,26.30
2019-02-26T13:40:37.938Z,26.30
2019-02-26T13:45:39.797Z,26.40
2019-02-26T13:48:13.088Z,26.50
2019-02-26T13:50:44.101Z,26.20
2019-02-26T13:53:14.345Z,26.30
2019-02-26T13:55:46.562Z,26.40
2019-02-26T13:58:18.268Z,26.20
2019-02-26T14:00:49.526Z,26.20
2019-02-26T14:03:20.374Z,26.20
2019-02-26T14:05:52.837Z,26.30
2019-02-26T14:08:25.265Z,26.20
2019-02-26T14:11:01.783Z,25.90
2019-02-26T14:13:32.340Z,25.80
2019-02-26T14:16:06.471Z,25.80
2019-02-26T14:18:38.614Z,24.90
2019-02-26T14:21:09.526Z,24.70
2019-02-26T14:23:40.161Z,24.70
2019-02-26T14:26:14.426Z,24.80
2019-02-26T14:28:46.114Z,25.10
2019-02-26T14:31:16.545Z,25.20
2019-02-26T14:33:46.910Z,25.30
2019-02-26T14:36:18.413Z,25.50
2019-02-26T14:38:53.877Z,24.50
2019-02-26T14:41:24.574Z,24.90
2019-02-26T14:43:54.795Z,25.20
2019-02-26T14:46:27.150Z,25.50
2019-02-26T14:49:28.060Z,25.60
2019-02-26T14:52:00.158Z,25.60
2019-02-26T14:54:31.127Z,25.40
2019-02-26T14:57:06.104Z,25.20
2019-02-26T14:59:39.927Z,25.00
2019-02-26T15:02:11.289Z,24.90
2019-02-26T15:04:44.180Z,24.70
2019-02-26T15:07:14.741Z,24.70
2019-02-26T15:09:48.254Z,24.80
2019-02-26T15:12:19.299Z,24.80
2019-02-26T15:14:54.507Z,24.90
2019-02-26T15:17:25.604Z,24.60
2019-02-26T15:19:55.892Z,24.30
2019-02-26T15:22:25.997Z,24.10
2019-02-26T15:24:57.096Z,24.00
2019-02-26T15:27:36.052Z,23.90
2019-02-26T15:30:07.710Z,23.70
2019-02-26T15:32:40.658Z,23.30
2019-02-26T15:35:11.726Z,23.10
2019-02-26T15:37:43.262Z,23.00
2019-02-26T15:40:15.121Z,22.30
2019-02-26T15:42:45.580Z,22.20
2019-02-26T15:45:19.069Z,22.00
2019-02-26T15:47:51.192Z,21.90
2019-02-26T15:50:21.665Z,21.60
2019-02-26T15:52:54.420Z,21.20
2019-02-26T15:55:25.910Z,20.90
2019-02-26T15:58:03.108Z,20.70
2019-02-26T16:00:30.778Z,20.50
2019-02-26T16:03:04.985Z,20.40
2019-02-26T16:05:39.840Z,20.30
2019-02-26T16:08:11.780Z,20.10
2019-02-26T16:10:43.316Z,19.70
2019-02-26T16:13:14.334Z,19.60
2019-02-26T16:15:48.070Z,19.30
2019-02-26T16:18:18.566Z,19.00
2019-02-26T16:20:48.936Z,18.80
2019-02-26T16:23:20.931Z,18.50
2019-02-26T16:25:51.393Z,18.40
2019-02-26T16:28:22.142Z,18.30
2019-02-26T16:30:58.471Z,18.20
2019-02-26T16:33:37.758Z,17.90
2019-02-26T16:36:04.070Z,17.70
2019-02-26T16:38:40.214Z,17.60
2019-02-26T16:41:14.061Z,17.50
2019-02-26T16:43:44.516Z,17.40
2019-02-26T16:46:14.908Z,17.40
2019-02-26T16:48:47.922Z,17.40
2019-02-26T16:51:21.591Z,17.30
2019-02-26T16:53:50.958Z,17.20
2019-02-26T16:56:22.485Z,17.20
2019-02-26T16:58:52.931Z,17.20
2019-02-26T17:01:24.993Z,17.20
2019-02-26T17:03:55.510Z,17.10
2019-02-26T17:06:27.216Z,16.90
2019-02-26T17:08:59.995Z,16.70
2019-02-26T17:11:30.243Z,16.50
2019-02-26T17:14:07.546Z,16.30
2019-02-26T17:16:38.238Z,16.20
2019-02-26T17:19:08.482Z,16.10
2019-02-26T17:21:41.876Z,15.90
2019-02-26T17:24:12.380Z,15.80
2019-02-26T17:26:46.801Z,15.60
2019-02-26T17:29:17.769Z,15.50
2019-02-26T17:31:49.197Z,15.40
2019-02-26T17:34:20.634Z,15.20
2019-02-26T17:37:03.937Z,15.10
2019-02-26T17:39:37.345Z,14.90
2019-02-26T17:42:12.969Z,14.70
2019-02-26T17:44:45.087Z,14.60
2019-02-26T17:47:15.434Z,14.50
2019-02-26T17:49:46.038Z,14.30
2019-02-26T17:52:18.425Z,14.20
2019-02-26T17:54:49.809Z,14.00
2019-02-26T17:57:23.434Z,13.90
2019-02-26T17:59:55.168Z,13.80
2019-02-26T18:02:31.024Z,13.60
2019-02-26T18:05:01.836Z,13.50
2019-02-26T18:07:32.466Z,13.40
2019-02-26T18:10:05.640Z,13.30
2019-02-26T18:12:39.942Z,13.10
2019-02-26T18:15:10.772Z,13.00
2019-02-26T18:17:42.084Z,12.90
2019-02-26T18:20:15.001Z,12.80
2019-02-26T18:22:47.264Z,12.70
2019-02-26T18:25:21.709Z,12.60
2019-02-26T18:27:53.759Z,12.40
2019-02-26T18:30:27.998Z,12.30
2019-02-26T18:32:59.140Z,12.20
2019-02-26T18:35:29.688Z,12.00
2019-02-26T18:38:02.738Z,11.90
2019-02-26T18:40:33.681Z,11.80
2019-02-26T18:43:04.165Z,11.70
2019-02-26T18:45:34.545Z,11.60
2019-02-26T18:48:05.188Z,11.50
2019-02-26T18:50:35.784Z,11.50
2019-02-26T18:53:06.440Z,11.30
2019-02-26T18:55:40.047Z,11.30
2019-02-26T18:58:16.538Z,11.20
2019-02-26T19:00:47.403Z,11.00
2019-02-26T19:03:17.982Z,10.90
2019-02-26T19:05:48.594Z,10.80
2019-02-26T19:08:19.143Z,10.70
2019-02-26T19:10:50.944Z,10.60
2019-02-26T19:13:24.093Z,10.50
2019-02-26T19:15:57.096Z,10.40
2019-02-26T19:18:27.892Z,10.30
2019-02-26T19:21:01.934Z,10.20
2019-02-26T19:23:35.487Z,10.10
2019-02-26T19:26:06.417Z,10.10
2019-02-26T19:28:40.681Z,10.00
2019-02-26T19:31:11.206Z,9.90
2019-02-26T19:33:42.254Z,9.80
2019-02-26T19:36:17.173Z,9.80
2019-02-26T19:38:51.512Z,9.80
2019-02-26T19:41:22.557Z,9.70
2019-02-26T19:43:53.424Z,9.60
2019-02-26T19:46:27.092Z,9.50
2019-02-26T19:49:05.815Z,9.40
2019-02-26T19:51:36.578Z,9.30
2019-02-26T19:54:08.500Z,9.20
2019-02-26T19:56:43.870Z,9.20
2019-02-26T19:59:14.610Z,9.10
2019-02-26T20:01:45.886Z,9.00
2019-02-26T20:04:16.384Z,8.90
2019-02-26T20:06:47.655Z,8.90
2019-02-26T20:09:19.090Z,8.70
2019-02-26T20:11:53.576Z,8.70
2019-02-26T20:14:28.447Z,8.60
2019-02-26T20:17:05.051Z,8.60
2019-02-26T20:19:34.168Z,8.50
2019-02-26T20:22:05.489Z,8.40
2019-02-26T20:24:37.304Z,8.30
2019-02-26T20:27:08.501Z,8.20
2019-02-26T20:29:43.720Z,8.10
2019-02-26T20:32:14.779Z,8.10
2019-02-26T20:34:47.770Z,8.10
2019-02-26T20:37:18.153Z,8.00
2019-02-26T20:39:49.126Z,7.90
2019-02-26T20:42:19.606Z,7.80
2019-02-26T20:44:58.837Z,7.80
2019-02-26T20:47:31.682Z,7.80
2019-02-26T20:50:02.435Z,7.70
2019-02-26T20:52:33.348Z,7.60
2019-02-26T20:55:05.290Z,7.60
2019-02-26T20:57:41.331Z,7.50
2019-02-26T21:00:16.774Z,7.50
2019-02-26T21:02:47.629Z,7.40
2019-02-26T21:05:18.349Z,7.40
2019-02-26T21:07:49.623Z,7.30
2019-02-26T21:10:20.558Z,7.20
2019-02-26T21:12:53.525Z,7.10
2019-02-26T21:15:26.044Z,7.10
2019-02-26T21:17:58.723Z,7.10
2019-02-26T21:20:29.369Z,7.10
2019-02-26T21:23:03.002Z,7.00
2019-02-26T21:25:38.694Z,6.90
2019-02-26T21:28:09.105Z,6.80
2019-02-26T21:30:39.658Z,6.70
2019-02-26T21:33:11.688Z,6.70
2019-02-26T21:35:41.912Z,6.80
2019-02-26T21:38:13.147Z,6.70
2019-02-26T21:40:48.525Z,6.60
2019-02-26T21:43:16.786Z,6.50
2019-02-26T21:45:49.445Z,6.40
2019-02-26T21:48:20.611Z,6.40
2019-02-26T21:51:00.072Z,6.40
2019-02-26T21:53:30.273Z,6.40
2019-02-26T21:56:02.876Z,6.30
2019-02-26T21:58:34.311Z,6.30
2019-02-26T22:01:04.700Z,6.40
2019-02-26T22:03:34.866Z,6.20
2019-02-26T22:06:10.763Z,6.20
2019-02-26T22:08:40.107Z,6.10
2019-02-26T22:11:11.194Z,6.00
2019-02-26T22:13:42.533Z,6.00
2019-02-26T22:16:17.694Z,6.00
2019-02-26T22:18:48.873Z,5.90
2019-02-26T22:21:19.663Z,5.80
2019-02-26T22:23:51.306Z,5.80
2019-02-26T22:26:23.626Z,5.70
2019-02-26T22:28:58.797Z,5.70
2019-02-26T22:31:29.432Z,5.60
2019-02-26T22:33:59.737Z,5.50
2019-02-26T22:36:33.319Z,5.50
2019-02-26T22:39:07.446Z,5.40
2019-02-26T22:41:37.726Z,5.40
2019-02-26T22:44:08.439Z,5.30
2019-02-26T22:46:39.117Z,5.50
2019-02-26T22:49:09.424Z,5.40
2019-02-26T22:51:39.906Z,5.30
2019-02-26T22:54:10.517Z,5.20
2019-02-26T22:56:40.702Z,5.20
2019-02-26T22:59:11.186Z,5.30
2019-02-26T23:01:50.001Z,5.20
2019-02-26T23:04:20.481Z,5.10
2019-02-26T23:06:51.009Z,5.20
2019-02-26T23:09:28.078Z,5.00
2019-02-26T23:11:58.736Z,4.90
2019-02-26T23:14:29.845Z,4.80
2019-02-26T23:17:00.440Z,4.80
2019-02-26T23:19:36.425Z,4.80
2019-02-26T23:22:06.629Z,4.80
2019-02-26T23:24:38.382Z,4.90
2019-02-26T23:27:14.915Z,4.70
2019-02-26T23:29:45.088Z,4.60
2019-02-26T23:32:18.081Z,4.50
2019-02-26T23:35:05.308Z,4.70
2019-02-26T23:37:35.784Z,4.60
2019-02-26T23:40:06.859Z,4.50
2019-02-26T23:42:38.965Z,4.60
2019-02-26T23:45:09.889Z,4.60
2019-02-26T23:47:43.281Z,4.60
2019-02-26T23:50:14.089Z,4.50
2019-02-26T23:52:47.197Z,4.50
2019-02-26T23:55:17.799Z,4.40
2019-02-26T23:57:52.415Z,4.40
